createdAt,value
2023-04-11T00:01:36.930Z,11.25
2023-04-11T00:04:04.108Z,11.09
2023-04-11T00:06:32.494Z,11.10
2023-04-11T00:08:59.023Z,11.06
2023-04-11T00:11:33.276Z,11.07
2023-04-11T00:13:59.749Z,11.06
2023-04-11T00:16:26.715Z,10.92
2023-04-11T00:18:53.425Z,10.77
2023-04-11T00:21:20.062Z,10.72
2023-04-11T00:23:52.237Z,10.66
2023-04-11T00:26:23.718Z,10.63
2023-04-11T00:28:50.169Z,10.64
2023-04-11T00:31:16.723Z,10.61
2023-04-11T00:33:43.266Z,10.66
2023-04-11T00:36:11.447Z,10.60
2023-04-11T00:38:38.212Z,10.60
2023-04-11T00:41:04.747Z,10.63
2023-04-11T00:43:34.645Z,10.70
2023-04-11T00:46:05.878Z,10.74
2023-04-11T00:48:32.409Z,10.76
2023-04-11T00:50:59.094Z,10.80
2023-04-11T00:53:26.043Z,10.82
2023-04-11T00:55:52.666Z,10.84
2023-04-11T00:58:22.899Z,10.78
2023-04-11T01:00:52.474Z,10.77
2023-04-11T01:03:19.521Z,10.69
2023-04-11T01:05:49.012Z,10.69
2023-04-11T01:08:16.405Z,10.67
2023-04-11T01:10:42.972Z,10.63
2023-04-11T01:13:10.550Z,10.62
2023-04-11T01:15:38.770Z,10.60
2023-04-11T01:18:06.402Z,10.57
2023-04-11T01:20:33.452Z,10.61
2023-04-11T01:23:02.833Z,10.64
2023-04-11T01:25:29.360Z,10.56
2023-04-11T01:27:56.512Z,10.40
2023-04-11T01:30:23.149Z,10.34
2023-04-11T01:32:50.768Z,10.36
2023-04-11T01:35:21.680Z,10.31
2023-04-11T01:37:51.301Z,10.29
2023-04-11T01:40:19.599Z,10.21
2023-04-11T01:42:47.089Z,10.18
2023-04-11T01:45:13.621Z,10.14
2023-04-11T01:47:40.515Z,10.11
2023-04-11T01:50:07.688Z,10.10
2023-04-11T01:52:37.292Z,10.12
2023-04-11T01:55:04.230Z,10.14
2023-04-11T01:57:40.084Z,10.16
2023-04-11T02:00:08.926Z,10.15
2023-04-11T02:02:35.668Z,10.14
2023-04-11T02:05:02.216Z,10.09
2023-04-11T02:07:28.776Z,10.13
2023-04-11T02:09:56.434Z,10.18
2023-04-11T02:12:22.924Z,10.17
2023-04-11T02:14:49.987Z,10.18
2023-04-11T02:17:22.294Z,10.21
2023-04-11T02:19:49.352Z,10.20
2023-04-11T02:22:16.159Z,10.25
2023-04-11T02:24:42.647Z,10.22
2023-04-11T02:27:09.477Z,10.14
2023-04-11T02:29:36.074Z,10.15
2023-04-11T02:32:02.779Z,10.16
2023-04-11T02:34:29.419Z,10.17
2023-04-11T02:36:55.972Z,10.19
2023-04-11T02:39:25.444Z,10.19
2023-04-11T02:41:52.139Z,10.19
2023-04-11T02:44:19.491Z,10.20
2023-04-11T02:46:45.984Z,10.10
2023-04-11T02:49:12.530Z,10.06
2023-04-11T02:51:39.004Z,9.98
2023-04-11T02:54:06.269Z,10.07
2023-04-11T02:56:34.879Z,9.99
2023-04-11T02:59:01.383Z,9.94
2023-04-11T03:01:28.244Z,9.98
2023-04-11T03:03:54.867Z,9.93
2023-04-11T03:06:21.441Z,9.92
2023-04-11T03:08:48.141Z,9.91
2023-04-11T03:11:14.604Z,9.82
2023-04-11T03:13:41.180Z,9.81
2023-04-11T03:16:08.172Z,9.80
2023-04-11T03:18:35.493Z,9.82
2023-04-11T03:21:01.971Z,9.82
2023-04-11T03:23:28.493Z,9.83
2023-04-11T03:25:55.171Z,9.80
2023-04-11T03:28:21.708Z,9.73
2023-04-11T03:30:48.824Z,9.64
2023-04-11T03:33:15.414Z,9.59
2023-04-11T03:35:41.950Z,9.57
2023-04-11T03:38:08.430Z,9.56
2023-04-11T03:40:34.917Z,9.51
2023-04-11T03:43:04.339Z,9.51
2023-04-11T03:45:31.483Z,9.50
2023-04-11T03:47:57.983Z,9.51
2023-04-11T03:50:24.581Z,9.51
2023-04-11T03:52:51.064Z,9.63
2023-04-11T03:55:18.608Z,9.62
2023-04-11T03:57:45.195Z,9.60
2023-04-11T04:00:15.467Z,9.55
2023-04-11T04:02:42.261Z,9.57
2023-04-11T04:05:09.308Z,9.55
2023-04-11T04:07:35.851Z,9.58
2023-04-11T04:10:02.430Z,9.60
2023-04-11T04:12:28.976Z,9.65
2023-04-11T04:14:55.585Z,9.68
2023-04-11T04:17:22.114Z,9.66
2023-04-11T04:19:48.591Z,9.66
2023-04-11T04:22:17.590Z,9.71
2023-04-11T04:24:47.577Z,9.74
2023-04-11T04:27:14.110Z,9.76
2023-04-11T04:29:52.562Z,9.73
2023-04-11T04:32:30.803Z,9.73
2023-04-11T04:34:58.673Z,9.73
2023-04-11T04:37:25.873Z,9.73
2023-04-11T04:39:57.429Z,9.76
2023-04-11T04:42:30.343Z,9.71
2023-04-11T04:44:57.299Z,9.65
2023-04-11T04:47:26.063Z,9.62
2023-04-11T04:49:56.574Z,9.60
2023-04-11T04:52:27.818Z,9.57
2023-04-11T04:54:58.367Z,9.53
2023-04-11T04:57:25.912Z,9.56
2023-04-11T04:59:52.534Z,9.51
2023-04-11T05:02:22.563Z,9.45
2023-04-11T05:04:50.388Z,9.41
2023-04-11T05:07:18.285Z,9.42
2023-04-11T05:09:44.976Z,9.39
2023-04-11T05:12:11.582Z,9.39
2023-04-11T05:14:38.112Z,9.42
2023-04-11T05:17:04.873Z,9.39
2023-04-11T05:19:32.357Z,9.35
2023-04-11T05:21:58.873Z,9.38
2023-04-11T05:24:25.662Z,9.34
2023-04-11T05:26:52.116Z,9.34
2023-04-11T05:29:18.554Z,9.24
2023-04-11T05:31:45.054Z,8.54
2023-04-11T05:34:11.539Z,8.15
2023-04-11T05:36:38.038Z,8.02
2023-04-11T05:39:04.571Z,7.86
2023-04-11T05:41:31.221Z,7.71
2023-04-11T05:43:57.872Z,7.62
2023-04-11T05:46:24.844Z,7.59
2023-04-11T05:48:53.905Z,7.66
2023-04-11T05:51:20.400Z,7.67
2023-04-11T05:53:46.842Z,7.69
2023-04-11T05:56:13.400Z,7.69
2023-04-11T05:58:43.274Z,7.75
2023-04-11T06:01:14.301Z,7.75
2023-04-11T06:03:40.916Z,7.71
2023-04-11T06:06:10.766Z,7.66
2023-04-11T06:08:37.547Z,7.81
2023-04-11T06:11:04.333Z,7.96
2023-04-11T06:13:30.925Z,8.14
2023-04-11T06:15:57.500Z,8.34
2023-04-11T06:18:23.983Z,8.39
2023-04-11T06:20:50.733Z,8.45
2023-04-11T06:23:17.218Z,8.50
2023-04-11T06:25:43.687Z,8.61
2023-04-11T06:28:10.472Z,8.74
2023-04-11T06:30:39.603Z,8.95
2023-04-11T06:33:06.087Z,9.21
2023-04-11T06:35:35.601Z,9.42
2023-04-11T06:38:02.105Z,9.56
2023-04-11T06:40:28.549Z,9.64
2023-04-11T06:42:57.858Z,9.76
2023-04-11T06:45:24.536Z,9.83
2023-04-11T06:47:51.082Z,9.97
2023-04-11T06:50:17.708Z,10.08
2023-04-11T06:52:44.243Z,10.29
2023-04-11T06:55:14.374Z,10.27
2023-04-11T06:57:42.861Z,9.98
2023-04-11T07:00:12.187Z,9.59
2023-04-11T07:02:41.909Z,9.14
2023-04-11T07:05:10.186Z,8.84
2023-04-11T07:07:37.421Z,8.46
2023-04-11T07:10:04.933Z,8.27
2023-04-11T07:12:31.434Z,8.06
2023-04-11T07:14:57.882Z,7.82
2023-04-11T07:17:24.469Z,7.78
2023-04-11T07:19:50.918Z,7.75
2023-04-11T07:22:17.463Z,7.80
2023-04-11T07:24:46.394Z,7.79
2023-04-11T07:27:14.435Z,7.89
2023-04-11T07:29:41.171Z,8.11
2023-04-11T07:32:07.759Z,8.36
2023-04-11T07:34:34.216Z,8.62
2023-04-11T07:37:01.073Z,8.66
2023-04-11T07:39:27.908Z,8.56
2023-04-11T07:41:54.490Z,8.31
2023-04-11T07:44:21.939Z,8.18
2023-04-11T07:46:49.003Z,8.01
2023-04-11T07:49:15.647Z,7.83
2023-04-11T07:51:42.119Z,7.51
2023-04-11T07:54:09.518Z,7.33
2023-04-11T07:56:36.138Z,7.23
2023-04-11T07:59:03.356Z,7.19
2023-04-11T08:01:29.852Z,7.20
2023-04-11T08:03:57.366Z,7.25
2023-04-11T08:06:24.408Z,7.32
2023-04-11T08:08:51.474Z,7.48
2023-04-11T08:11:17.977Z,7.63
2023-04-11T08:13:45.098Z,7.74
2023-04-11T08:16:12.504Z,7.77
2023-04-11T08:18:42.217Z,7.89
2023-04-11T08:21:12.229Z,8.01
2023-04-11T08:23:42.592Z,8.15
2023-04-11T08:26:09.887Z,8.32
2023-04-11T08:28:36.443Z,8.48
2023-04-11T08:31:04.449Z,8.35
2023-04-11T08:33:31.079Z,8.38
2023-04-11T08:35:57.643Z,8.31
2023-04-11T08:38:24.151Z,8.26
2023-04-11T08:40:50.599Z,8.26
2023-04-11T08:43:17.157Z,8.27
2023-04-11T08:45:43.656Z,8.16
2023-04-11T08:48:12.326Z,8.14
2023-04-11T08:50:44.136Z,8.12
2023-04-11T08:53:11.591Z,8.23
2023-04-11T08:55:47.587Z,8.36
2023-04-11T08:58:14.758Z,8.47
2023-04-11T09:00:41.289Z,8.63
2023-04-11T09:03:13.596Z,8.67
2023-04-11T09:05:41.796Z,8.66
2023-04-11T09:08:13.080Z,8.67
2023-04-11T09:10:41.711Z,8.71
2023-04-11T09:13:25.209Z,8.77
2023-04-11T09:16:14.854Z,8.86
2023-04-11T09:18:46.537Z,8.95
2023-04-11T09:21:15.088Z,9.02
2023-04-11T09:23:41.621Z,9.08
2023-04-11T09:26:11.185Z,9.22
2023-04-11T09:28:42.778Z,9.30
2023-04-11T09:31:10.790Z,9.33
2023-04-11T09:33:37.263Z,9.40
2023-04-11T09:36:18.680Z,9.32
2023-04-11T09:38:45.386Z,9.39
2023-04-11T09:41:11.964Z,9.46
2023-04-11T09:43:57.941Z,9.54
2023-04-11T09:46:25.374Z,9.60
2023-04-11T09:48:54.670Z,9.63
2023-04-11T09:51:35.199Z,9.73
2023-04-11T09:54:03.811Z,9.55
2023-04-11T09:56:36.807Z,9.59
2023-04-11T09:59:05.157Z,9.75
2023-04-11T10:01:32.290Z,9.93
2023-04-11T10:04:00.910Z,10.16
2023-04-11T10:06:38.669Z,10.05
2023-04-11T10:09:11.179Z,10.30
2023-04-11T10:11:42.460Z,10.53
2023-04-11T10:14:09.106Z,10.78
2023-04-11T10:16:35.716Z,10.93
2023-04-11T10:19:02.353Z,10.87
2023-04-11T10:21:37.667Z,10.89
2023-04-11T10:24:10.107Z,11.16
2023-04-11T10:26:48.091Z,11.44
2023-04-11T10:29:29.514Z,11.32
2023-04-11T10:32:11.165Z,11.48
2023-04-11T10:34:40.037Z,11.61
2023-04-11T10:37:10.356Z,11.86
2023-04-11T10:39:52.089Z,12.06
2023-04-11T10:42:36.025Z,12.02
2023-04-11T10:45:28.862Z,11.80
2023-04-11T10:48:07.674Z,11.96
2023-04-11T10:50:37.638Z,11.90
2023-04-11T10:53:09.546Z,11.36
2023-04-11T10:55:46.293Z,11.00
2023-04-11T10:58:19.837Z,10.75
2023-04-11T11:00:55.334Z,10.64
2023-04-11T11:03:28.096Z,10.63
2023-04-11T11:06:06.299Z,10.55
2023-04-11T11:08:35.080Z,10.39
2023-04-11T11:11:03.122Z,10.38
2023-04-11T11:14:02.051Z,10.37
2023-04-11T11:16:28.657Z,10.38
2023-04-11T11:18:56.653Z,10.38
2023-04-11T11:21:27.677Z,10.50
2023-04-11T11:24:01.771Z,10.84
2023-04-11T11:26:44.205Z,11.50
2023-04-11T11:29:11.173Z,11.56
2023-04-11T11:31:39.424Z,11.84
2023-04-11T11:34:22.665Z,12.05
2023-04-11T11:36:50.012Z,12.65
2023-04-11T11:39:16.672Z,12.99
2023-04-11T11:41:43.256Z,12.78
2023-04-11T11:44:27.790Z,13.04
2023-04-11T11:47:05.305Z,12.99
2023-04-11T11:49:54.806Z,13.12
2023-04-11T11:52:35.063Z,12.99
2023-04-11T11:55:03.689Z,13.02
2023-04-11T11:57:30.281Z,13.49
2023-04-11T11:59:58.284Z,13.43
2023-04-11T12:02:26.863Z,13.33
2023-04-11T12:05:01.421Z,13.24
2023-04-11T12:07:37.531Z,13.03
2023-04-11T12:10:14.235Z,13.24
2023-04-11T12:12:42.411Z,13.25
2023-04-11T12:15:13.840Z,12.70
2023-04-11T12:17:48.042Z,12.56
2023-04-11T12:20:17.625Z,12.27
2023-04-11T12:22:44.125Z,12.26
2023-04-11T12:25:12.813Z,12.15
2023-04-11T12:27:47.089Z,12.02
2023-04-11T12:30:17.145Z,12.33
2023-04-11T12:32:44.773Z,12.50
2023-04-11T12:35:12.575Z,12.65
2023-04-11T12:37:39.160Z,12.58
2023-04-11T12:40:12.051Z,12.48
2023-04-11T12:42:53.281Z,12.42
2023-04-11T12:45:22.221Z,12.38
2023-04-11T12:47:48.788Z,12.28
2023-04-11T12:50:15.346Z,12.43
2023-04-11T12:52:41.857Z,12.57
2023-04-11T12:55:09.502Z,12.55
2023-04-11T12:57:36.659Z,12.48
2023-04-11T13:00:13.331Z,12.49
2023-04-11T13:02:43.981Z,12.25
2023-04-11T13:05:14.263Z,12.41
2023-04-11T13:07:41.575Z,12.30
2023-04-11T13:10:08.653Z,12.02
2023-04-11T13:12:41.112Z,11.89
2023-04-11T13:15:09.505Z,11.58
2023-04-11T13:17:36.070Z,11.44
2023-04-11T13:20:03.365Z,11.35
2023-04-11T13:22:29.896Z,11.20
2023-04-11T13:24:56.445Z,10.99
2023-04-11T13:27:23.023Z,10.78
2023-04-11T13:29:49.524Z,10.75
2023-04-11T13:32:16.010Z,10.82
2023-04-11T13:34:42.541Z,11.14
2023-04-11T13:37:09.322Z,11.45
2023-04-11T13:39:36.266Z,11.80
2023-04-11T13:42:02.797Z,11.79
2023-04-11T13:44:29.326Z,11.95
2023-04-11T13:46:55.895Z,12.10
2023-04-11T13:49:22.397Z,12.07
2023-04-11T13:51:48.936Z,12.07
2023-04-11T13:54:15.494Z,12.00
2023-04-11T13:56:42.117Z,11.99
2023-04-11T13:59:08.646Z,12.11
2023-04-11T14:01:35.217Z,12.16
2023-04-11T14:04:04.790Z,12.09
2023-04-11T14:06:31.425Z,12.18
2023-04-11T14:08:58.052Z,12.20
2023-04-11T14:11:27.423Z,12.32
2023-04-11T14:13:53.939Z,12.43
2023-04-11T14:16:20.521Z,12.17
2023-04-11T14:18:47.122Z,12.07
2023-04-11T14:21:13.797Z,11.93
2023-04-11T14:23:40.490Z,12.05
2023-04-11T14:26:07.088Z,12.15
2023-04-11T14:28:33.818Z,12.04
2023-04-11T14:31:00.536Z,11.86
2023-04-11T14:33:27.077Z,11.73
2023-04-11T14:35:53.572Z,11.63
2023-04-11T14:38:20.036Z,11.39
2023-04-11T14:40:49.062Z,11.26
2023-04-11T14:43:18.328Z,11.28
2023-04-11T14:45:44.841Z,11.63
2023-04-11T14:48:11.706Z,11.79
2023-04-11T14:50:38.197Z,11.82
2023-04-11T14:53:05.127Z,11.76
2023-04-11T14:55:31.591Z,11.77
2023-04-11T14:57:58.086Z,11.67
2023-04-11T15:00:24.955Z,11.50
2023-04-11T15:02:54.127Z,11.45
2023-04-11T15:05:22.507Z,11.45
2023-04-11T15:07:54.023Z,11.42
2023-04-11T15:10:23.330Z,11.30
2023-04-11T15:12:49.855Z,11.09
2023-04-11T15:15:16.783Z,10.82
2023-04-11T15:17:47.412Z,10.36
2023-04-11T15:20:17.240Z,9.51
2023-04-11T15:22:45.408Z,9.05
2023-04-11T15:25:14.680Z,8.68
2023-04-11T15:27:42.213Z,8.57
2023-04-11T15:30:10.106Z,8.60
2023-04-11T15:32:42.077Z,8.71
2023-04-11T15:35:09.108Z,8.63
2023-04-11T15:37:35.665Z,8.66
2023-04-11T15:40:05.988Z,8.92
2023-04-11T15:42:35.299Z,8.94
2023-04-11T15:45:02.202Z,8.86
2023-04-11T15:47:29.250Z,8.69
2023-04-11T15:49:56.278Z,8.66
2023-04-11T15:52:26.384Z,8.60
2023-04-11T15:54:52.944Z,8.27
2023-04-11T15:57:19.582Z,8.11
2023-04-11T15:59:48.128Z,8.01
2023-04-11T16:02:15.142Z,7.99
2023-04-11T16:04:44.757Z,7.86
2023-04-11T16:07:13.647Z,7.95
2023-04-11T16:09:40.290Z,7.94
2023-04-11T16:12:06.993Z,7.86
2023-04-11T16:14:33.496Z,7.88
2023-04-11T16:17:00.191Z,8.06
2023-04-11T16:19:26.697Z,8.13
2023-04-11T16:21:53.989Z,8.29
2023-04-11T16:24:20.923Z,8.35
2023-04-11T16:26:47.466Z,8.43
2023-04-11T16:29:13.919Z,8.44
2023-04-11T16:31:40.551Z,8.37
2023-04-11T16:34:07.197Z,8.30
2023-04-11T16:36:34.616Z,8.36
2023-04-11T16:39:01.691Z,8.53
2023-04-11T16:41:28.213Z,8.62
2023-04-11T16:43:54.886Z,8.68
2023-04-11T16:46:21.780Z,8.74
2023-04-11T16:48:48.355Z,8.68
2023-04-11T16:51:14.880Z,8.57
2023-04-11T16:53:41.427Z,8.57
2023-04-11T16:56:08.345Z,8.52
2023-04-11T16:58:34.875Z,8.46
2023-04-11T17:01:01.817Z,8.42
2023-04-11T17:03:28.709Z,8.37
2023-04-11T17:05:58.196Z,8.35
2023-04-11T17:08:26.446Z,8.40
2023-04-11T17:10:53.334Z,8.46
2023-04-11T17:13:19.787Z,8.58
2023-04-11T17:15:46.409Z,8.64
2023-04-11T17:18:14.810Z,8.67
2023-04-11T17:20:43.422Z,8.60
2023-04-11T17:23:10.124Z,8.46
2023-04-11T17:25:36.789Z,8.42
2023-04-11T17:28:03.340Z,8.37
2023-04-11T17:30:30.962Z,8.29
2023-04-11T17:32:57.720Z,8.25
2023-04-11T17:35:24.453Z,8.17
2023-04-11T17:37:51.025Z,8.16
2023-04-11T17:40:18.713Z,8.17
2023-04-11T17:42:46.038Z,8.12
2023-04-11T17:47:44.377Z,8.10
2023-04-11T17:50:12.885Z,8.06
2023-04-11T17:52:41.706Z,8.04
2023-04-11T17:55:10.371Z,8.04
2023-04-11T17:57:37.755Z,8.02
2023-04-11T18:00:26.186Z,7.94
2023-04-11T18:02:54.923Z,7.84
2023-04-11T18:05:24.488Z,7.80
2023-04-11T18:07:54.135Z,7.79
2023-04-11T18:10:24.830Z,7.79
2023-04-11T18:12:52.916Z,7.76
2023-04-11T18:15:21.238Z,7.71
2023-04-11T18:17:48.156Z,7.72
2023-04-11T18:20:15.488Z,7.71
2023-04-11T18:22:46.182Z,7.73
2023-04-11T18:25:13.156Z,7.73
2023-04-11T18:27:40.710Z,7.72
2023-04-11T18:30:13.998Z,7.66
2023-04-11T18:32:47.443Z,7.64
2023-04-11T18:35:15.660Z,7.62
2023-04-11T18:37:42.788Z,7.57
2023-04-11T18:40:14.186Z,7.49
2023-04-11T18:42:46.404Z,7.32
2023-04-11T18:45:15.322Z,7.27
2023-04-11T18:47:42.025Z,7.33
2023-04-11T18:50:08.924Z,7.32
2023-04-11T18:52:35.829Z,7.26
2023-04-11T18:55:03.323Z,7.24
2023-04-11T18:57:33.818Z,7.29
2023-04-11T19:00:12.769Z,7.27
2023-04-11T19:02:41.833Z,7.26
2023-04-11T19:05:13.790Z,7.20
2023-04-11T19:07:45.820Z,7.17
2023-04-11T19:10:12.686Z,7.11
2023-04-11T19:12:40.729Z,6.93
2023-04-11T19:15:08.851Z,6.72
2023-04-11T19:17:36.622Z,6.78
2023-04-11T19:20:06.989Z,6.85
2023-04-11T19:22:34.600Z,6.86
2023-04-11T19:25:01.068Z,6.89
2023-04-11T19:27:27.698Z,6.87
2023-04-11T19:29:54.247Z,6.82
2023-04-11T19:32:20.929Z,6.75
2023-04-11T19:34:49.678Z,6.76
2023-04-11T19:37:16.720Z,6.76
2023-04-11T19:39:43.900Z,6.77
2023-04-11T19:42:10.635Z,6.69
2023-04-11T19:44:37.685Z,6.65
2023-04-11T19:47:09.723Z,6.58
2023-04-11T19:49:36.101Z,6.56
2023-04-11T19:52:02.628Z,6.52
2023-04-11T19:54:30.689Z,6.57
2023-04-11T19:57:00.608Z,6.59
2023-04-11T19:59:27.180Z,6.55
2023-04-11T20:01:54.222Z,6.53
2023-04-11T20:04:21.200Z,6.53
2023-04-11T20:06:54.371Z,6.53
2023-04-11T20:09:23.838Z,6.56
2023-04-11T20:11:54.323Z,6.54
2023-04-11T20:14:20.860Z,6.48
2023-04-11T20:16:47.304Z,6.47
2023-04-11T20:19:14.488Z,6.47
2023-04-11T20:21:43.234Z,6.47
2023-04-11T20:24:10.441Z,6.42
2023-04-11T20:26:36.889Z,6.40
2023-04-11T20:29:03.668Z,6.40
2023-04-11T20:31:30.163Z,6.41
2023-04-11T20:33:59.910Z,6.34
2023-04-11T20:36:32.789Z,6.31
2023-04-11T20:39:04.560Z,6.27
2023-04-11T20:41:32.236Z,6.23
2023-04-11T20:43:59.508Z,6.24
2023-04-11T20:46:29.707Z,6.21
2023-04-11T20:48:56.589Z,6.22
2023-04-11T20:51:25.204Z,6.22
2023-04-11T20:53:51.770Z,6.22
2023-04-11T20:56:18.257Z,6.20
2023-04-11T20:58:48.333Z,6.20
2023-04-11T21:01:15.410Z,6.15
2023-04-11T21:03:44.037Z,6.10
2023-04-11T21:06:10.831Z,6.11
2023-04-11T21:08:37.749Z,6.06
2023-04-11T21:11:08.633Z,6.10
2023-04-11T21:13:35.072Z,6.06
2023-04-11T21:16:02.412Z,6.07
2023-04-11T21:18:28.936Z,5.87
2023-04-11T21:20:55.435Z,5.81
2023-04-11T21:23:22.208Z,5.90
2023-04-11T21:25:51.325Z,5.92
2023-04-11T21:28:17.799Z,5.85
2023-04-11T21:30:44.286Z,5.86
2023-04-11T21:33:10.844Z,5.87
2023-04-11T21:35:37.366Z,5.91
2023-04-11T21:38:03.981Z,5.96
2023-04-11T21:40:30.777Z,5.97
2023-04-11T21:42:59.765Z,5.92
2023-04-11T21:45:29.125Z,5.84
2023-04-11T21:47:58.729Z,5.85
2023-04-11T21:50:25.478Z,5.90
2023-04-11T21:52:55.637Z,5.91
2023-04-11T21:55:25.602Z,5.92
2023-04-11T21:57:52.082Z,5.86
2023-04-11T22:00:18.670Z,5.91
2023-04-11T22:02:45.463Z,5.89
2023-04-11T22:05:12.616Z,5.79
2023-04-11T22:07:48.630Z,5.83
2023-04-11T22:10:25.852Z,5.81
2023-04-11T22:12:55.714Z,5.78
2023-04-11T22:15:27.150Z,5.83
2023-04-11T22:17:56.263Z,5.84
2023-04-11T22:20:23.043Z,5.79
2023-04-11T22:22:52.564Z,5.73
2023-04-11T22:25:22.124Z,5.78
2023-04-11T22:27:49.738Z,5.79
2023-04-11T22:30:16.551Z,5.76
2023-04-11T22:32:43.110Z,5.73
2023-04-11T22:35:12.019Z,5.66
2023-04-11T22:37:44.721Z,5.66
2023-04-11T22:40:12.015Z,5.65
2023-04-11T22:42:39.292Z,5.63
2023-04-11T22:45:06.859Z,5.61
2023-04-11T22:47:34.427Z,5.56
2023-04-11T22:50:04.071Z,5.64
2023-04-11T22:52:30.615Z,5.53
2023-04-11T22:54:57.458Z,5.33
2023-04-11T22:57:27.078Z,5.39
2023-04-11T22:59:53.530Z,5.37
2023-04-11T23:02:20.105Z,5.35
2023-04-11T23:04:46.729Z,5.34
2023-04-11T23:07:16.995Z,5.37
2023-04-11T23:09:44.779Z,5.40
2023-04-11T23:12:11.597Z,5.30
2023-04-11T23:14:40.917Z,5.29
2023-04-11T23:17:07.509Z,5.35
2023-04-11T23:19:34.196Z,5.36
2023-04-11T23:22:00.876Z,5.31
2023-04-11T23:24:30.539Z,5.28
2023-04-11T23:26:57.210Z,5.13
2023-04-11T23:29:23.851Z,4.97
2023-04-11T23:31:50.705Z,4.98
2023-04-11T23:34:17.173Z,5.10
2023-04-11T23:36:43.732Z,5.12
2023-04-11T23:39:10.208Z,5.20
2023-04-11T23:41:37.309Z,5.22
2023-04-11T23:44:07.047Z,5.29
2023-04-11T23:46:33.590Z,5.33
2023-04-11T23:49:00.112Z,5.39
2023-04-11T23:51:27.064Z,5.44
2023-04-11T23:53:54.056Z,5.47
2023-04-11T23:56:21.375Z,5.48
2023-04-11T23:58:54.329Z,5.48
